Time;durP1;ratioP1;P1;durP2;ratioP2;P2;SDS_P1;SDS_P2;PMS_P1;PMS_P2;Temp;Humidity;BMP_temperature;BMP_pressure;BME280_temperature;BME280_humidity;BME280_pressure;Samples;Min_cycle;Max_cycle;Signal;HPM_P1;HPM_P2
2023/06/23 06:21:33;;;;;;;17.60;14.52;;;21.10;99.90;;;;;;4835225;29;19930;-78
2023/06/23 06:24:01;;;;;;;20.75;14.38;;;21.20;99.90;;;;;;4852304;29;20078;-79
2023/06/23 06:26:28;;;;;;;19.75;13.27;;;21.20;99.90;;;;;;4860310;29;20082;-80
2023/06/23 06:28:58;;;;;;;20.08;13.10;;;21.30;99.90;;;;;;4857783;29;20053;-78
2023/06/23 06:31:28;;;;;;;18.67;14.32;;;21.40;99.90;;;;;;4850419;29;20092;-78
2023/06/23 06:33:55;;;;;;;;;;;21.50;99.90;;;;;;4866021;23;20144;-84
2023/06/23 06:36:24;;;;;;;15.05;13.07;;;21.50;99.90;;;;;;4847905;29;19925;-81
2023/06/23 06:38:51;;;;;;;17.40;14.57;;;21.50;99.90;;;;;;4831884;29;20114;-82
2023/06/23 06:41:20;;;;;;;17.25;13.82;;;21.50;99.90;;;;;;4848357;29;20130;-82
2023/06/23 06:43:47;;;;;;;18.05;14.40;;;21.50;99.90;;;;;;4849581;29;20088;-83
2023/06/23 06:46:15;;;;;;;16.83;14.25;;;21.50;99.90;;;;;;4825675;29;20054;-81
2023/06/23 06:48:46;;;;;;;20.95;14.13;;;21.50;99.90;;;;;;4847458;29;20080;-84
2023/06/23 06:51:19;;;;;;;19.30;16.15;;;21.50;99.90;;;;;;4848177;29;20050;-84
2023/06/23 06:53:46;;;;;;;22.05;14.95;;;21.50;99.90;;;;;;4831286;29;20079;-80
2023/06/23 06:56:14;;;;;;;17.77;14.23;;;21.50;99.90;;;;;;4848779;29;20114;-83
2023/06/23 06:58:41;;;;;;;16.70;14.05;;;21.50;99.90;;;;;;4849066;29;20087;-81
2023/06/23 07:01:09;;;;;;;20.70;13.25;;;21.50;99.90;;;;;;4833866;29;20092;-84
2023/06/23 07:03:39;;;;;;;20.00;13.98;;;21.50;99.90;;;;;;4849764;29;20049;-83
2023/06/23 07:06:06;;;;;;;16.15;14.45;;;21.50;99.90;;;;;;4849177;29;20058;-83
2023/06/23 07:08:33;;;;;;;21.20;14.57;;;21.50;99.90;;;;;;4848868;29;20058;-83
2023/06/23 07:11:00;;;;;;;16.50;13.98;;;21.50;99.90;;;;;;4833294;29;20061;-83
2023/06/23 07:13:27;;;;;;;16.17;14.13;;;21.50;99.90;;;;;;4849658;29;20471;-80
2023/06/23 07:15:53;;;;;;;17.20;14.02;;;21.50;99.90;;;;;;4849264;29;20050;-83
2023/06/23 07:18:23;;;;;;;16.83;12.88;;;21.60;99.90;;;;;;4849732;29;20088;-83
2023/06/23 07:20:50;;;;;;;17.80;12.68;;;21.60;99.90;;;;;;4849167;29;20045;-83
2023/06/23 07:23:17;;;;;;;16.63;13.23;;;21.70;99.90;;;;;;4848311;29;20488;-83
2023/06/23 07:25:43;;;;;;;18.83;12.57;;;21.80;99.90;;;;;;4829446;29;20079;-82
2023/06/23 07:28:10;;;;;;;17.55;12.90;;;21.90;99.90;;;;;;4834438;29;20145;-83
2023/06/23 07:30:39;;;;;;;14.75;12.10;;;22.00;99.90;;;;;;4851286;29;20503;-84
2023/06/23 07:33:06;;;;;;;13.73;10.90;;;22.10;99.90;;;;;;4847018;29;20057;-83
2023/06/23 07:35:33;;;;;;;17.25;10.73;;;22.10;99.90;;;;;;4848199;29;20065;-84
2023/06/23 07:38:00;;;;;;;13.32;11.40;;;22.30;99.90;;;;;;4850105;29;20560;-81
2023/06/23 07:40:26;;;;;;;18.08;11.63;;;22.40;99.90;;;;;;4849058;29;20057;-83
2023/06/23 07:42:53;;;;;;;15.70;10.65;;;22.50;99.90;;;;;;4849542;29;20496;-83
2023/06/23 07:45:20;;;;;;;12.50;10.77;;;22.50;99.90;;;;;;4848929;29;20552;-83
2023/06/23 07:47:47;;;;;;;12.68;9.88;;;22.50;99.90;;;;;;4830892;29;20672;-83
2023/06/23 07:50:14;;;;;;;12.13;9.88;;;22.50;99.90;;;;;;4847746;29;20058;-83
2023/06/23 07:52:41;;;;;;;11.80;9.55;;;22.50;99.90;;;;;;4831863;29;20477;-83
2023/06/23 07:55:08;;;;;;;11.20;9.15;;;22.50;99.90;;;;;;4849170;29;20591;-83
2023/06/23 07:57:34;;;;;;;14.35;8.65;;;22.60;99.90;;;;;;4833963;29;20058;-82
2023/06/23 08:00:03;;;;;;;12.32;9.20;;;22.70;99.90;;;;;;4850143;29;20110;-83
2023/06/23 08:02:29;;;;;;;13.82;8.85;;;22.80;99.90;;;;;;4833194;29;20084;-83
2023/06/23 08:04:56;;;;;;;9.43;8.32;;;22.90;99.90;;;;;;4850450;29;20053;-82
2023/06/23 08:07:23;;;;;;;11.18;8.30;;;23.00;99.90;;;;;;4828036;29;20527;-82
2023/06/23 08:09:49;;;;;;;9.10;7.45;;;23.10;99.90;;;;;;4832934;29;20365;-83
2023/06/23 08:12:16;;;;;;;11.57;7.78;;;23.20;99.90;;;;;;4849304;29;20054;-83
2023/06/23 08:14:43;;;;;;;9.82;7.53;;;23.30;99.90;;;;;;4851148;29;20074;-84
2023/06/23 08:17:09;;;;;;;13.35;7.15;;;23.30;99.90;;;;;;4849992;29;20110;-84
2023/06/23 08:19:37;;;;;;;11.90;7.45;;;23.40;99.90;;;;;;4828474;29;20050;-83
2023/06/23 08:22:04;;;;;;;9.57;7.05;;;23.40;99.90;;;;;;4851017;29;20050;-84
2023/06/23 08:24:33;;;;;;;12.02;7.88;;;23.40;99.90;;;;;;4851331;29;20057;-83
2023/06/23 08:27:00;;;;;;;9.07;6.55;;;23.50;99.90;;;;;;4850262;29;20423;-83
2023/06/23 08:29:27;;;;;;;9.98;6.30;;;23.60;99.90;;;;;;4852051;29;20085;-82
2023/06/23 08:31:53;;;;;;;8.20;5.82;;;23.60;99.90;;;;;;4833951;29;20110;-83
2023/06/23 08:34:20;;;;;;;7.10;6.05;;;23.70;99.90;;;;;;4849479;29;20054;-83
2023/06/23 08:36:47;;;;;;;7.55;6.07;;;23.70;99.90;;;;;;4833049;29;20057;-81
2023/06/23 08:39:14;;;;;;;7.38;6.25;;;23.70;99.90;;;;;;4834372;29;20427;-83
2023/06/23 08:41:41;;;;;;;10.50;6.32;;;23.70;99.90;;;;;;4835404;29;20050;-83
2023/06/23 08:44:13;;;;;;;11.23;6.40;;;23.70;99.90;;;;;;4851354;29;20075;-83
2023/06/23 08:46:41;;;;;;;7.63;5.63;;;23.70;99.90;;;;;;4837092;29;20046;-83
2023/06/23 08:49:30;;;;;;;7.50;5.45;;;23.70;99.90;;;;;;4851441;29;20058;-81
2023/06/23 08:51:58;;;;;;;7.85;6.32;;;23.70;99.90;;;;;;4833344;29;20062;-82
2023/06/23 08:54:25;;;;;;;9.48;6.90;;;23.70;99.90;;;;;;4851232;29;20460;-81
2023/06/23 08:56:52;;;;;;;7.70;5.90;;;23.70;99.90;;;;;;4847936;29;20050;-81
2023/06/23 08:59:20;;;;;;;11.40;6.05;;;23.60;99.90;;;;;;4847919;29;20049;-83
2023/06/23 09:01:46;;;;;;;9.93;6.35;;;23.60;99.90;;;;;;4833835;29;20050;-83
2023/06/23 09:04:14;;;;;;;8.80;5.55;;;23.60;99.90;;;;;;4850200;29;20084;-83
2023/06/23 09:06:42;;;;;;;9.95;5.72;;;23.70;99.90;;;;;;4848909;29;20058;-83
2023/06/23 09:09:08;;;;;;;6.82;5.28;;;23.70;99.90;;;;;;4847275;29;20553;-84
2023/06/23 09:11:35;;;;;;;7.78;4.93;;;23.70;99.90;;;;;;4847070;29;20075;-83
2023/06/23 09:14:06;;;;;;;8.93;6.07;;;23.70;99.90;;;;;;4848094;29;20083;-82
2023/06/23 09:16:32;;;;;;;;;;;23.80;99.90;;;;;;4830656;29;20078;-82
2023/06/23 09:19:02;;;;;;;8.73;5.10;;;23.90;99.90;;;;;;4850668;29;19935;-83
2023/06/23 09:21:30;;;;;;;6.20;4.68;;;23.90;99.90;;;;;;4849860;29;20045;-83
2023/06/23 09:24:03;;;;;;;6.38;4.90;;;24.00;99.90;;;;;;4849950;29;20058;-83
2023/06/23 09:26:47;;;;;;;9.45;4.88;;;24.10;99.90;;;;;;4849921;29;20114;-84
2023/06/23 09:29:19;;;;;;;9.63;4.07;;;24.30;99.90;;;;;;4826770;29;20069;-84
2023/06/23 09:31:50;;;;;;;5.88;4.65;;;24.40;99.90;;;;;;4849685;29;20058;-83
2023/06/23 09:34:27;;;;;;;7.07;4.22;;;24.50;99.90;;;;;;4851399;29;20062;-82
2023/06/23 09:37:10;;;;;;;6.13;4.90;;;24.60;99.90;;;;;;4851006;29;20106;-83
2023/06/23 09:39:39;;;;;;;4.88;4.30;;;24.70;99.90;;;;;;4849892;29;20056;-83
2023/06/23 09:42:13;;;;;;;4.68;4.10;;;24.90;99.90;;;;;;4848390;29;20054;-84
2023/06/23 09:44:41;;;;;;;5.80;3.85;;;24.90;99.90;;;;;;4847176;29;20085;-83
2023/06/23 09:47:09;;;;;;;6.97;4.63;;;24.90;99.90;;;;;;4848759;29;20057;-84
2023/06/23 09:49:43;;;;;;;7.95;3.65;;;24.80;99.90;;;;;;4848133;29;20058;-82
2023/06/23 09:52:14;;;;;;;5.20;4.25;;;24.80;99.90;;;;;;4847568;29;20054;-83
2023/06/23 09:54:41;;;;;;;6.30;4.10;;;24.70;99.90;;;;;;4846287;29;20087;-83
2023/06/23 09:57:13;;;;;;;5.85;4.10;;;24.60;99.90;;;;;;4847968;29;20477;-83
2023/06/23 09:59:41;;;;;;;8.90;4.63;;;24.50;99.90;;;;;;4845785;29;20082;-83
2023/06/23 10:02:18;;;;;;;4.80;4.30;;;24.50;99.90;;;;;;4848208;29;20046;-82
2023/06/23 10:04:47;;;;;;;8.73;4.15;;;24.40;99.90;;;;;;4847983;29;20507;-83
2023/06/23 10:07:21;;;;;;;7.60;4.72;;;24.40;99.90;;;;;;4847726;29;20057;-83
2023/06/23 10:09:53;;;;;;;10.48;4.35;;;24.30;99.90;;;;;;4848628;29;20050;-82
2023/06/23 10:12:33;;;;;;;5.97;4.38;;;24.10;99.90;;;;;;4832551;29;20050;-83
2023/06/23 10:15:00;;;;;;;5.90;4.30;;;24.10;99.90;;;;;;4847358;29;20050;-83
2023/06/23 10:17:26;;;;;;;4.90;3.88;;;24.00;99.90;;;;;;4831971;29;20054;-82
2023/06/23 10:19:55;;;;;;;7.90;3.78;;;24.00;99.90;;;;;;4849261;29;20053;-83
2023/06/23 10:22:22;;;;;;;4.47;3.72;;;23.90;99.90;;;;;;4846189;29;20079;-83
2023/06/23 10:24:52;;;;;;;6.15;4.18;;;23.90;99.90;;;;;;4832302;29;20561;-83
2023/06/23 10:27:24;;;;;;;8.45;4.32;;;23.80;99.90;;;;;;4848511;29;20054;-83
2023/06/23 10:29:56;;;;;;;5.47;4.30;;;23.80;99.90;;;;;;4848486;29;20112;-83
2023/06/23 10:32:30;;;;;;;7.65;4.15;;;23.80;99.90;;;;;;4845265;29;20053;-81
2023/06/23 10:34:59;;;;;;;7.38;4.35;;;23.80;99.90;;;;;;4847037;29;20058;-83
2023/06/23 10:37:27;;;;;;;5.20;4.10;;;23.80;99.90;;;;;;4832507;29;20304;-81
2023/06/23 10:40:13;;;;;;;4.38;3.97;;;23.80;99.90;;;;;;4845512;29;20049;-83
2023/06/23 10:42:43;;;;;;;5.97;4.22;;;23.80;99.90;;;;;;4847629;29;20049;-83
2023/06/23 10:45:10;;;;;;;6.63;3.88;;;23.90;99.90;;;;;;4831349;29;20133;-82
2023/06/23 10:47:37;;;;;;;4.68;3.53;;;23.90;99.90;;;;;;4824328;29;20503;-83
2023/06/23 10:50:05;;;;;;;5.78;3.47;;;23.90;99.90;;;;;;4845365;29;20136;-84
2023/06/23 10:52:32;;;;;;;5.32;3.72;;;23.90;99.90;;;;;;4849399;29;20141;-83
2023/06/23 10:54:58;;;;;;;6.10;3.55;;;23.90;99.90;;;;;;4845831;29;20061;-81
2023/06/23 10:57:25;;;;;;;4.25;3.20;;;23.90;99.90;;;;;;4846273;29;20061;-81
2023/06/23 11:00:05;;;;;;;5.18;3.03;;;24.00;99.90;;;;;;4844685;29;20050;-80
2023/06/23 11:02:52;;;;;;;;;;;24.00;99.90;;;;;;4844527;29;20052;-80
2023/06/23 11:05:19;;;;;;;6.32;3.40;;;24.00;99.90;;;;;;4844222;29;20004;-80
2023/06/23 11:08:07;;;;;;;6.03;3.63;;;24.10;99.90;;;;;;4845480;29;20110;-81
2023/06/23 11:10:55;;;;;;;5.25;3.25;;;24.10;99.90;;;;;;4841952;29;20566;-81
2023/06/23 11:13:44;;;;;;;4.20;3.40;;;24.30;99.90;;;;;;4842256;29;20133;-81
2023/06/23 11:16:25;;;;;;;7.13;3.90;;;24.40;99.90;;;;;;4846840;29;20113;-82
2023/06/23 11:18:57;;;;;;;5.28;3.97;;;24.40;99.90;;;;;;4827663;29;20050;-81
2023/06/23 11:21:30;;;;;;;4.88;3.20;;;24.50;99.90;;;;;;4844144;29;20054;-82
2023/06/23 11:24:26;;;;;;;6.65;2.85;;;24.60;99.90;;;;;;4842926;29;20071;-80
2023/06/23 11:27:00;;;;;;;4.60;2.95;;;24.70;99.90;;;;;;4838858;29;20508;-81
2023/06/23 11:29:27;;;;;;;4.10;3.20;;;24.70;99.90;;;;;;4842622;29;20088;-82
2023/06/23 11:32:12;;;;;;;4.85;3.47;;;24.80;99.90;;;;;;4847631;29;20106;-81
2023/06/23 11:35:09;;;;;;;4.45;3.00;;;24.90;99.90;;;;;;4849199;29;20554;-81
2023/06/23 11:37:39;;;;;;;7.97;4.03;;;25.00;99.90;;;;;;4844701;29;20118;-82
2023/06/23 11:40:08;;;;;;;3.80;2.80;;;25.00;99.90;;;;;;4842765;29;20185;-81
2023/06/23 11:42:36;;;;;;;4.88;3.15;;;25.00;99.90;;;;;;4848864;29;20600;-80
2023/06/23 11:45:04;;;;;;;6.00;3.40;;;25.00;99.90;;;;;;4849301;29;20112;-81
2023/06/23 11:47:31;;;;;;;6.70;2.78;;;25.00;99.90;;;;;;4845957;29;20072;-81
2023/06/23 11:50:06;;;;;;;4.90;3.28;;;25.10;99.90;;;;;;4847485;29;20061;-81
2023/06/23 11:52:33;;;;;;;4.35;3.08;;;25.20;99.90;;;;;;4846743;29;20053;-81
2023/06/23 11:55:00;;;;;;;4.93;3.92;;;25.20;99.90;;;;;;4848588;29;20058;-82
2023/06/23 11:57:26;;;;;;;3.65;2.83;;;25.30;99.90;;;;;;4848194;29;20064;-81
2023/06/23 11:59:53;;;;;;;7.80;3.28;;;25.40;99.90;;;;;;4847820;29;20062;-81
2023/06/23 12:02:20;;;;;;;4.70;3.03;;;25.40;99.90;;;;;;4847663;29;20053;-81
2023/06/23 12:04:48;;;;;;;3.75;3.10;;;25.50;99.90;;;;;;4848112;29;20073;-81
2023/06/23 12:07:16;;;;;;;3.90;3.00;;;25.50;99.90;;;;;;4847731;29;20046;-81
2023/06/23 12:09:43;;;;;;;3.13;2.70;;;25.50;99.90;;;;;;4849024;29;20079;-81
2023/06/23 12:12:09;;;;;;;3.15;2.25;;;25.70;99.90;;;;;;4849243;29;20054;-82
2023/06/23 12:14:43;;;;;;;3.38;2.42;;;25.70;99.90;;;;;;4847218;29;20057;-81
2023/06/23 12:17:12;;;;;;;5.05;2.50;;;25.90;99.90;;;;;;4848209;29;20515;-81
2023/06/23 12:19:41;;;;;;;3.35;2.42;;;25.90;99.90;;;;;;4829981;29;20397;-82
2023/06/23 12:22:16;;;;;;;7.00;3.17;;;26.00;99.90;;;;;;4847410;29;20290;-82
2023/06/23 12:24:45;;;;;;;5.00;2.53;;;25.90;99.90;;;;;;4848417;29;20054;-80
2023/06/23 12:27:12;;;;;;;4.78;2.83;;;25.90;99.90;;;;;;4849028;29;20127;-80
2023/06/23 12:29:39;;;;;;;3.58;2.30;;;25.90;99.90;;;;;;4833110;29;20057;-79
2023/06/23 12:32:07;;;;;;;3.55;2.70;;;25.90;99.90;;;;;;4849104;29;20103;-80
2023/06/23 12:34:36;;;;;;;4.40;2.75;;;25.90;99.90;;;;;;4849469;29;20061;-80
2023/06/23 12:37:10;;;;;;;4.30;2.97;;;25.80;99.90;;;;;;4831737;29;20137;-79
2023/06/23 12:39:51;;;;;;;3.53;2.63;;;25.90;99.90;;;;;;4847010;29;20050;-80
2023/06/23 12:42:22;;;;;;;3.17;2.55;;;25.90;99.90;;;;;;4846619;29;20054;-80
2023/06/23 12:44:49;;;;;;;5.95;3.00;;;25.90;99.90;;;;;;4846942;29;20068;-81
2023/06/23 12:47:17;;;;;;;4.97;2.60;;;25.90;99.90;;;;;;4845189;29;20050;-81
2023/06/23 12:49:44;;;;;;;8.25;2.53;;;25.90;99.90;;;;;;4846344;29;20114;-81
2023/06/23 12:52:11;;;;;;;3.45;2.20;;;25.80;99.90;;;;;;4848998;29;20050;-83
2023/06/23 12:54:38;;;;;;;3.20;2.60;;;25.90;99.90;;;;;;4846672;29;20053;-80
2023/06/23 12:57:08;;;;;;;3.38;2.50;;;25.90;99.90;;;;;;4844339;29;20064;-80
2023/06/23 12:59:34;;;;;;;3.45;2.28;;;25.80;99.90;;;;;;4844683;29;20053;-80
2023/06/23 13:02:01;;;;;;;3.38;2.72;;;25.70;99.90;;;;;;4845868;29;20084;-80
2023/06/23 13:04:28;;;;;;;4.10;2.70;;;25.70;99.90;;;;;;4845128;29;20117;-80
2023/06/23 13:06:55;;;;;;;3.78;2.42;;;25.60;99.90;;;;;;4844600;29;20041;-78
2023/06/23 13:09:21;;;;;;;3.22;2.92;;;25.50;99.90;;;;;;4829080;29;20057;-80
2023/06/23 13:11:48;;;;;;;4.00;3.25;;;25.40;99.90;;;;;;4828621;29;20115;-80
2023/06/23 13:14:15;;;;;;;3.95;2.60;;;25.40;99.90;;;;;;4845863;29;20058;-78
2023/06/23 13:16:43;;;;;;;4.68;2.72;;;25.30;99.90;;;;;;4845871;29;20781;-79
2023/06/23 13:19:11;;;;;;;4.50;2.83;;;25.30;99.90;;;;;;4845780;29;20523;-78
2023/06/23 13:21:41;;;;;;;4.65;2.78;;;25.20;99.90;;;;;;4847922;29;20149;-81
2023/06/23 13:24:08;;;;;;;3.15;2.72;;;25.10;99.90;;;;;;4851472;29;20077;-81
2023/06/23 13:26:34;;;;;;;4.22;3.05;;;25.20;99.90;;;;;;4837335;29;20093;-81
2023/06/23 13:29:01;;;;;;;2.90;2.60;;;25.20;99.90;;;;;;4855029;29;20057;-82
2023/06/23 13:31:28;;;;;;;5.30;2.67;;;25.20;99.90;;;;;;4837383;29;20077;-82
2023/06/23 13:33:55;;;;;;;2.45;2.17;;;25.40;99.90;;;;;;4854267;29;20080;-82
2023/06/23 13:36:22;;;;;;;4.30;2.40;;;25.40;99.90;;;;;;4852493;29;20083;-79
2023/06/23 13:38:48;;;;;;;3.67;2.70;;;25.50;99.90;;;;;;4849943;29;20084;-81
2023/06/23 13:41:15;;;;;;;4.75;2.92;;;25.60;99.90;;;;;;4851080;29;20099;-80
2023/06/23 13:43:42;;;;;;;3.55;2.53;;;25.60;99.90;;;;;;4849457;29;20504;-79
2023/06/23 13:46:09;;;;;;;3.70;2.55;;;25.70;99.90;;;;;;4850808;29;20062;-78
2023/06/23 13:48:36;;;;;;;3.25;2.20;;;25.80;99.90;;;;;;4849834;29;20050;-82
2023/06/23 13:51:03;;;;;;;3.35;2.60;;;25.70;99.90;;;;;;4850221;29;20496;-81
2023/06/23 13:53:30;;;;;;;4.68;2.97;;;25.80;99.90;;;;;;4849333;29;20058;-80
2023/06/23 13:55:57;;;;;;;8.35;3.13;;;25.70;99.90;;;;;;4853706;29;20050;-82
2023/06/23 13:58:23;;;;;;;4.00;2.95;;;25.70;99.90;;;;;;4850227;29;20102;-82
2023/06/23 14:00:52;;;;;;;3.38;3.08;;;25.60;99.90;;;;;;4856595;29;20058;-79
2023/06/23 14:03:19;;;;;;;3.33;1.90;;;25.60;99.90;;;;;;4853367;29;20056;-84
2023/06/23 14:05:46;;;;;;;3.38;1.90;;;25.60;99.90;;;;;;4859443;29;20049;-83
2023/06/23 14:08:19;;;;;;;7.93;2.30;;;25.50;98.80;;;;;;4855350;29;20050;-82
2023/06/23 14:10:46;;;;;;;3.15;2.22;;;25.50;99.70;;;;;;4830282;29;20054;-82
2023/06/23 14:13:14;;;;;;;2.42;1.90;;;25.60;99.90;;;;;;4855749;29;20049;-82
2023/06/23 14:15:41;;;;;;;2.63;1.92;;;25.60;99.00;;;;;;4852600;29;20057;-82
2023/06/23 14:18:08;;;;;;;2.42;1.80;;;25.60;98.00;;;;;;4851298;29;20061;-81
2023/06/23 14:20:35;;;;;;;2.20;1.80;;;25.70;98.70;;;;;;4851593;29;20050;-83
2023/06/23 14:23:02;;;;;;;4.70;2.25;;;25.80;98.50;;;;;;4830244;29;20053;-81
2023/06/23 14:25:30;;;;;;;4.68;1.98;;;25.80;99.90;;;;;;4849115;29;20050;-82
2023/06/23 14:27:58;;;;;;;3.80;2.15;;;25.80;99.90;;;;;;4847506;29;20148;-79
2023/06/23 14:30:26;;;;;;;3.28;2.03;;;25.70;99.90;;;;;;4850590;29;20057;-81
2023/06/23 14:32:55;;;;;;;2.55;1.90;;;25.60;99.50;;;;;;4849873;29;20106;-82
2023/06/23 14:35:23;;;;;;;2.95;2.10;;;25.60;99.40;;;;;;4852595;29;20053;-82
2023/06/23 14:37:49;;;;;;;3.75;2.03;;;25.60;98.50;;;;;;4856537;29;20113;-80
2023/06/23 14:40:16;;;;;;;3.75;2.20;;;25.50;97.80;;;;;;4856594;29;20113;-81
2023/06/23 14:42:43;;;;;;;3.58;1.98;;;25.40;97.40;;;;;;4857250;29;20079;-82
2023/06/23 14:45:10;;;;;;;2.58;2.15;;;25.40;97.70;;;;;;4856103;29;20049;-83
2023/06/23 14:47:39;;;;;;;3.58;2.28;;;25.40;98.10;;;;;;4855788;29;20053;-81
2023/06/23 14:50:08;;;;;;;4.10;2.25;;;25.30;98.20;;;;;;4853034;29;20088;-82
2023/06/23 14:52:35;;;;;;;4.13;1.25;;;25.30;97.70;;;;;;4852080;29;20049;-79
2023/06/23 14:55:03;;;;;;;3.08;1.65;;;25.40;97.60;;;;;;4850848;29;20054;-82
2023/06/23 14:57:30;;;;;;;2.55;1.92;;;25.40;96.60;;;;;;4850119;29;20504;-82
2023/06/23 14:59:57;;;;;;;1.80;1.52;;;25.40;97.40;;;;;;4850361;29;20053;-80
2023/06/23 15:02:24;;;;;;;2.03;1.48;;;25.40;97.00;;;;;;4851248;29;20137;-81
2023/06/23 15:04:51;;;;;;;5.15;2.08;;;25.40;97.00;;;;;;4850595;29;20054;-84
2023/06/23 15:07:17;;;;;;;5.03;2.08;;;25.40;98.50;;;;;;4853928;29;20046;-78
2023/06/23 15:09:44;;;;;;;2.47;1.88;;;25.50;98.30;;;;;;4856270;29;20111;-80
2023/06/23 15:12:11;;;;;;;5.25;2.30;;;25.60;97.40;;;;;;4853163;29;20050;-80
2023/06/23 15:14:38;;;;;;;2.38;1.85;;;25.60;97.60;;;;;;4855846;29;20057;-80
2023/06/23 15:17:05;;;;;;;2.17;1.83;;;25.70;98.20;;;;;;4841141;29;20054;-79
2023/06/23 15:19:32;;;;;;;2.17;1.92;;;25.70;97.00;;;;;;4857418;29;20086;-82
2023/06/23 15:21:59;;;;;;;3.63;1.80;;;25.60;97.00;;;;;;4855233;29;20054;-80
2023/06/23 15:24:26;;;;;;;3.85;1.58;;;25.60;97.30;;;;;;4858180;29;20054;-79
2023/06/23 15:26:53;;;;;;;4.75;2.13;;;25.60;97.60;;;;;;4856876;29;20086;-81
2023/06/23 15:29:19;;;;;;;3.35;2.05;;;25.50;97.30;;;;;;4847959;29;20061;-79
2023/06/23 15:31:46;;;;;;;2.22;2.00;;;25.50;98.00;;;;;;4844513;29;20110;-80
2023/06/23 15:34:13;;;;;;;3.00;2.00;;;25.50;98.20;;;;;;4825959;29;20144;-81
2023/06/23 15:36:40;;;;;;;2.45;1.88;;;25.50;99.00;;;;;;4844313;29;20053;-80
2023/06/23 15:39:06;;;;;;;4.30;2.10;;;25.50;97.80;;;;;;4827983;29;20380;-81
2023/06/23 15:41:33;;;;;;;4.85;2.20;;;25.50;98.20;;;;;;4829465;29;20088;-78
2023/06/23 15:44:00;;;;;;;2.42;1.90;;;25.50;97.60;;;;;;4841849;29;20049;-81
2023/06/23 15:46:26;;;;;;;5.60;2.33;;;25.50;97.20;;;;;;4845369;29;20110;-81
2023/06/23 15:48:53;;;;;;;2.50;2.20;;;25.50;98.00;;;;;;4845542;29;20050;-78
2023/06/23 15:51:22;;;;;;;4.68;2.00;;;25.40;98.30;;;;;;4832222;29;20096;-79
2023/06/23 15:53:48;;;;;;;4.63;2.00;;;25.40;98.10;;;;;;4835145;29;20060;-80
2023/06/23 15:56:16;;;;;;;2.97;1.98;;;25.30;97.40;;;;;;4845035;29;20065;-79
2023/06/23 15:58:42;;;;;;;4.00;1.70;;;25.30;97.20;;;;;;4844950;29;20504;-78
2023/06/23 16:01:10;;;;;;;3.17;2.15;;;25.30;97.50;;;;;;4845347;29;20050;-81
2023/06/23 16:03:36;;;;;;;3.30;2.00;;;25.30;97.50;;;;;;4846808;29;20053;-81
2023/06/23 16:06:04;;;;;;;3.22;2.17;;;25.20;98.60;;;;;;4846153;29;20114;-78
2023/06/23 16:08:31;;;;;;;3.65;2.20;;;25.20;99.20;;;;;;4846013;29;20110;-78
2023/06/23 16:10:57;;;;;;;2.65;2.28;;;25.20;98.30;;;;;;4847773;29;20114;-78
2023/06/23 16:13:26;;;;;;;2.90;2.03;;;25.20;98.90;;;;;;4849892;29;20141;-81
2023/06/23 16:15:52;;;;;;;3.92;2.47;;;25.20;99.30;;;;;;4851270;29;20511;-80
2023/06/23 16:18:19;;;;;;;2.80;2.20;;;25.20;99.40;;;;;;4848869;29;20053;-78
2023/06/23 16:20:46;;;;;;;3.15;2.20;;;25.30;99.70;;;;;;4849295;29;20653;-79
2023/06/23 16:23:13;;;;;;;2.85;2.30;;;25.30;99.70;;;;;;4831753;29;20050;-81
2023/06/23 16:25:39;;;;;;;3.08;2.25;;;25.30;99.60;;;;;;4849173;29;20050;-78
2023/06/23 16:28:06;;;;;;;3.38;2.25;;;25.30;99.80;;;;;;4853307;29;20054;-81
2023/06/23 16:30:33;;;;;;;3.72;2.20;;;25.30;99.00;;;;;;4860347;29;20058;-82
2023/06/23 16:33:00;;;;;;;2.08;1.88;;;25.30;99.10;;;;;;4860403;29;20063;-81
2023/06/23 16:35:27;;;;;;;2.60;2.00;;;25.30;99.50;;;;;;4861708;29;20049;-81
2023/06/23 16:37:54;;;;;;;3.78;2.20;;;25.30;99.50;;;;;;4845602;29;20050;-82
2023/06/23 16:40:20;;;;;;;2.63;2.33;;;25.30;99.40;;;;;;4862124;29;20082;-83
2023/06/23 16:42:48;;;;;;;4.38;2.10;;;25.30;99.30;;;;;;4859832;29;20034;-79
2023/06/23 16:45:15;;;;;;;5.07;2.30;;;25.30;99.90;;;;;;4861810;29;20062;-84
2023/06/23 16:47:45;;;;;;;4.63;2.42;;;25.30;99.60;;;;;;4842494;29;20057;-79
2023/06/23 16:50:13;;;;;;;3.88;2.45;;;25.40;99.70;;;;;;4860208;29;20113;-81
2023/06/23 16:52:41;;;;;;;2.35;2.15;;;25.30;99.80;;;;;;4861430;29;20046;-81
2023/06/23 16:55:08;;;;;;;2.92;2.35;;;25.30;99.90;;;;;;4855840;29;20488;-80
2023/06/23 16:57:34;;;;;;;3.90;2.10;;;25.30;99.30;;;;;;4858400;29;20054;-79
2023/06/23 17:00:04;;;;;;;3.50;2.33;;;25.30;99.50;;;;;;4856976;29;20054;-81
2023/06/23 17:02:31;;;;;;;4.90;2.33;;;25.20;99.10;;;;;;4857816;29;20419;-80
2023/06/23 17:04:59;;;;;;;4.63;2.45;;;25.20;99.60;;;;;;4855750;29;20122;-81
2023/06/23 17:07:25;;;;;;;2.75;2.30;;;25.10;99.70;;;;;;4857816;29;20049;-83
2023/06/23 17:09:52;;;;;;;2.30;2.10;;;25.20;99.70;;;;;;4858372;29;20739;-82
2023/06/23 17:12:19;;;;;;;2.83;2.40;;;25.10;99.10;;;;;;4858156;29;20054;-79
2023/06/23 17:14:47;;;;;;;3.03;2.47;;;25.20;99.30;;;;;;4855526;29;20054;-80
2023/06/23 17:17:14;;;;;;;2.83;2.55;;;25.10;99.40;;;;;;4856378;29;20094;-81
2023/06/23 17:19:40;;;;;;;3.55;2.40;;;25.10;99.90;;;;;;4854798;29;20079;-82
2023/06/23 17:22:07;;;;;;;3.97;2.53;;;25.10;99.90;;;;;;4854940;29;20476;-79
2023/06/23 17:24:34;;;;;;;5.63;2.45;;;25.10;99.70;;;;;;4838141;29;20222;-79
2023/06/23 17:27:01;;;;;;;5.05;2.50;;;25.10;99.30;;;;;;4856554;29;20049;-78
2023/06/23 17:29:27;;;;;;;3.70;2.60;;;25.10;99.40;;;;;;4856821;29;20114;-79
2023/06/23 17:31:54;;;;;;;4.65;2.30;;;25.10;99.60;;;;;;4857365;29;20300;-81
2023/06/23 17:34:21;;;;;;;5.40;2.58;;;25.10;98.80;;;;;;4856111;29;20060;-83
2023/06/23 17:36:48;;;;;;;4.47;2.33;;;25.10;99.20;;;;;;4853613;29;20126;-80
2023/06/23 17:39:15;;;;;;;4.13;2.17;;;25.10;99.90;;;;;;4832276;29;20050;-80
2023/06/23 17:41:42;;;;;;;5.78;2.30;;;25.10;99.90;;;;;;4851068;29;20053;-77
2023/06/23 17:44:08;;;;;;;3.28;2.30;;;25.00;99.90;;;;;;4852446;29;20050;-80
2023/06/23 17:46:35;;;;;;;3.63;2.80;;;25.00;99.90;;;;;;4852231;29;20477;-80
2023/06/23 17:49:02;;;;;;;2.60;2.40;;;25.10;99.90;;;;;;4849582;29;20135;-80
2023/06/23 17:51:29;;;;;;;5.63;2.22;;;25.00;99.90;;;;;;4850960;29;20467;-81
2023/06/23 17:53:56;;;;;;;5.07;2.33;;;25.00;99.90;;;;;;4833839;29;20583;-79
2023/06/23 17:56:23;;;;;;;3.28;2.53;;;25.00;99.70;;;;;;4853826;29;20058;-83
2023/06/23 17:58:50;;;;;;;5.50;3.03;;;25.00;99.10;;;;;;4852301;29;20083;-80
2023/06/23 18:01:17;;;;;;;5.63;2.05;;;25.00;99.70;;;;;;4831902;29;20061;-79
2023/06/23 18:03:44;;;;;;;3.45;2.50;;;24.90;99.30;;;;;;4855156;29;20057;-83
2023/06/23 18:06:11;;;;;;;2.58;2.33;;;24.90;99.70;;;;;;4835975;29;20416;-80
2023/06/23 18:08:38;;;;;;;2.63;2.40;;;24.80;99.40;;;;;;4840173;29;20050;-79
2023/06/23 18:11:04;;;;;;;2.70;2.25;;;24.90;99.10;;;;;;4855856;29;20049;-84
2023/06/23 18:13:31;;;;;;;2.88;2.22;;;24.80;99.40;;;;;;4856330;29;20050;-80
2023/06/23 18:15:58;;;;;;;2.67;2.33;;;24.80;99.90;;;;;;4855007;29;20078;-82
2023/06/23 18:18:25;;;;;;;4.25;2.33;;;24.80;99.90;;;;;;4853924;29;20094;-81
2023/06/23 18:20:51;;;;;;;4.03;2.72;;;24.80;99.90;;;;;;4838294;29;20050;-80
2023/06/23 18:23:18;;;;;;;2.53;2.33;;;24.70;99.90;;;;;;4837531;29;20057;-80
2023/06/23 18:25:45;;;;;;;3.10;2.50;;;24.70;99.90;;;;;;4838654;29;20058;-83
2023/06/23 18:28:12;;;;;;;3.22;2.63;;;24.70;99.90;;;;;;4855482;29;20058;-82
2023/06/23 18:30:39;;;;;;;2.95;2.30;;;24.60;99.90;;;;;;4854548;29;20115;-81
2023/06/23 18:33:06;;;;;;;4.80;2.33;;;24.60;99.90;;;;;;4854418;29;20054;-83
2023/06/23 18:35:32;;;;;;;6.05;2.38;;;24.70;99.90;;;;;;4854494;29;20065;-82
2023/06/23 18:38:00;;;;;;;2.75;2.33;;;24.60;99.90;;;;;;4853174;29;20062;-81
2023/06/23 18:40:27;;;;;;;4.63;2.65;;;24.50;99.90;;;;;;4854070;29;20054;-81
2023/06/23 18:42:53;;;;;;;3.40;3.00;;;24.50;99.90;;;;;;4854589;29;20041;-83
2023/06/23 18:45:20;;;;;;;4.93;3.00;;;24.40;99.90;;;;;;4854701;29;20053;-81
2023/06/23 18:47:47;;;;;;;4.13;3.28;;;24.40;99.90;;;;;;4853717;29;20536;-82
2023/06/23 18:50:14;;;;;;;3.38;2.85;;;24.40;99.90;;;;;;4837672;29;20057;-82
2023/06/23 18:52:41;;;;;;;3.58;2.60;;;24.40;99.90;;;;;;4854847;29;20064;-82
2023/06/23 18:55:08;;;;;;;5.80;2.58;;;24.30;99.90;;;;;;4854411;29;20073;-81
2023/06/23 18:57:35;;;;;;;4.57;2.70;;;24.30;99.90;;;;;;4854060;29;20113;-82
2023/06/23 19:00:05;;;;;;;5.20;3.25;;;24.20;99.90;;;;;;4854519;29;20058;-83
2023/06/23 19:02:32;;;;;;;7.00;3.20;;;24.20;99.90;;;;;;4854321;29;20073;-82
2023/06/23 19:04:58;;;;;;;3.90;2.75;;;24.10;99.90;;;;;;4822254;29;20066;-79
2023/06/23 19:07:25;;;;;;;5.05;3.00;;;24.00;99.90;;;;;;4853693;29;20073;-82
2023/06/23 19:09:52;;;;;;;3.03;2.63;;;23.90;99.90;;;;;;4852822;29;20050;-81
2023/06/23 19:12:19;;;;;;;3.42;2.05;;;23.90;99.90;;;;;;4853799;29;20061;-80